sensor_id;sensor_type;location;lat;lon;timestamp;P1;durP1;ratioP1;P2;durP2;ratioP2
34920;SDS011;21128;50.016;20.002;2023-08-06T00:00:57;30.75;;;22.80;;
34920;SDS011;21128;50.016;20.002;2023-08-06T00:03:44;28.17;;;23.10;;
34920;SDS011;21128;50.016;20.002;2023-08-06T00:06:10;36.93;;;23.47;;
34920;SDS011;21128;50.016;20.002;2023-08-06T00:08:37;30.27;;;24.30;;
34920;SDS011;21128;50.016;20.002;2023-08-06T00:11:04;33.93;;;22.30;;
34920;SDS011;21128;50.016;20.002;2023-08-06T00:13:31;30.50;;;23.47;;
34920;SDS011;21128;50.016;20.002;2023-08-06T00:16:11;36.60;;;24.27;;
34920;SDS011;21128;50.016;20.002;2023-08-06T00:18:39;31.80;;;25.10;;
34920;SDS011;21128;50.016;20.002;2023-08-06T00:21:07;37.00;;;24.30;;
34920;SDS011;21128;50.016;20.002;2023-08-06T00:23:34;37.07;;;25.27;;
34920;SDS011;21128;50.016;20.002;2023-08-06T00:26:01;36.17;;;25.37;;
34920;SDS011;21128;50.016;20.002;2023-08-06T00:28:28;40.90;;;27.03;;
34920;SDS011;21128;50.016;20.002;2023-08-06T00:30:55;46.63;;;31.23;;
34920;SDS011;21128;50.016;20.002;2023-08-06T00:33:23;44.10;;;28.50;;
34920;SDS011;21128;50.016;20.002;2023-08-06T00:35:50;50.03;;;29.93;;
34920;SDS011;21128;50.016;20.002;2023-08-06T00:38:18;47.60;;;32.20;;
34920;SDS011;21128;50.016;20.002;2023-08-06T00:40:45;50.47;;;32.63;;
34920;SDS011;21128;50.016;20.002;2023-08-06T00:43:12;48.05;;;30.40;;
34920;SDS011;21128;50.016;20.002;2023-08-06T00:45:39;55.17;;;35.53;;
34920;SDS011;21128;50.016;20.002;2023-08-06T00:48:06;56.50;;;37.63;;
34920;SDS011;21128;50.016;20.002;2023-08-06T00:50:33;61.27;;;37.87;;
34920;SDS011;21128;50.016;20.002;2023-08-06T00:53:01;62.33;;;40.00;;
34920;SDS011;21128;50.016;20.002;2023-08-06T00:55:28;64.40;;;40.93;;
34920;SDS011;21128;50.016;20.002;2023-08-06T00:57:56;57.13;;;33.77;;
34920;SDS011;21128;50.016;20.002;2023-08-06T01:00:23;44.70;;;29.93;;
34920;SDS011;21128;50.016;20.002;2023-08-06T01:02:52;54.97;;;33.30;;
34920;SDS011;21128;50.016;20.002;2023-08-06T01:05:21;41.27;;;29.40;;
34920;SDS011;21128;50.016;20.002;2023-08-06T01:11:04;49.13;;;29.30;;
34920;SDS011;21128;50.016;20.002;2023-08-06T01:13:46;49.27;;;31.07;;
34920;SDS011;21128;50.016;20.002;2023-08-06T01:16:17;52.20;;;33.10;;
34920;SDS011;21128;50.016;20.002;2023-08-06T01:18:46;62.80;;;38.37;;
34920;SDS011;21128;50.016;20.002;2023-08-06T01:21:16;58.37;;;37.90;;
34920;SDS011;21128;50.016;20.002;2023-08-06T01:23:44;60.97;;;36.13;;
34920;SDS011;21128;50.016;20.002;2023-08-06T01:29:07;47.83;;;31.30;;
34920;SDS011;21128;50.016;20.002;2023-08-06T01:31:41;46.73;;;27.80;;
34920;SDS011;21128;50.016;20.002;2023-08-06T01:34:13;45.20;;;28.03;;
34920;SDS011;21128;50.016;20.002;2023-08-06T01:36:52;39.43;;;26.67;;
34920;SDS011;21128;50.016;20.002;2023-08-06T01:39:19;36.63;;;25.57;;
34920;SDS011;21128;50.016;20.002;2023-08-06T01:41:50;40.90;;;27.40;;
34920;SDS011;21128;50.016;20.002;2023-08-06T01:44:16;37.73;;;23.63;;
34920;SDS011;21128;50.016;20.002;2023-08-06T01:46:44;31.60;;;22.60;;
34920;SDS011;21128;50.016;20.002;2023-08-06T01:49:11;35.37;;;23.20;;
34920;SDS011;21128;50.016;20.002;2023-08-06T01:51:38;32.27;;;22.50;;
34920;SDS011;21128;50.016;20.002;2023-08-06T01:54:05;34.43;;;22.37;;
34920;SDS011;21128;50.016;20.002;2023-08-06T01:56:32;27.47;;;21.37;;
34920;SDS011;21128;50.016;20.002;2023-08-06T01:58:59;31.73;;;21.57;;
34920;SDS011;21128;50.016;20.002;2023-08-06T02:01:26;30.37;;;20.63;;
34920;SDS011;21128;50.016;20.002;2023-08-06T02:03:53;27.57;;;20.67;;
34920;SDS011;21128;50.016;20.002;2023-08-06T02:06:19;26.33;;;19.77;;
34920;SDS011;21128;50.016;20.002;2023-08-06T02:08:46;30.20;;;21.27;;
34920;SDS011;21128;50.016;20.002;2023-08-06T02:11:13;28.50;;;19.97;;
34920;SDS011;21128;50.016;20.002;2023-08-06T02:13:40;29.37;;;21.12;;
34920;SDS011;21128;50.016;20.002;2023-08-06T02:16:07;32.10;;;21.80;;
34920;SDS011;21128;50.016;20.002;2023-08-06T02:18:37;27.77;;;20.50;;
34920;SDS011;21128;50.016;20.002;2023-08-06T02:21:04;31.20;;;20.43;;
34920;SDS011;21128;50.016;20.002;2023-08-06T02:23:31;31.90;;;20.20;;
34920;SDS011;21128;50.016;20.002;2023-08-06T02:26:01;30.48;;;20.35;;
34920;SDS011;21128;50.016;20.002;2023-08-06T02:28:30;27.93;;;20.10;;
34920;SDS011;21128;50.016;20.002;2023-08-06T02:30:58;29.23;;;20.77;;
34920;SDS011;21128;50.016;20.002;2023-08-06T02:33:25;30.33;;;20.80;;
34920;SDS011;21128;50.016;20.002;2023-08-06T02:35:58;27.90;;;21.00;;
34920;SDS011;21128;50.016;20.002;2023-08-06T02:38:26;26.47;;;19.60;;
34920;SDS011;21128;50.016;20.002;2023-08-06T02:40:54;28.20;;;20.95;;
34920;SDS011;21128;50.016;20.002;2023-08-06T02:43:21;29.63;;;21.50;;
34920;SDS011;21128;50.016;20.002;2023-08-06T02:45:47;29.27;;;20.88;;
34920;SDS011;21128;50.016;20.002;2023-08-06T02:48:14;27.13;;;20.00;;
34920;SDS011;21128;50.016;20.002;2023-08-06T02:50:42;32.90;;;20.63;;
34920;SDS011;21128;50.016;20.002;2023-08-06T02:53:09;27.63;;;19.73;;
34920;SDS011;21128;50.016;20.002;2023-08-06T02:55:36;28.90;;;20.07;;
34920;SDS011;21128;50.016;20.002;2023-08-06T02:58:03;29.57;;;20.43;;
34920;SDS011;21128;50.016;20.002;2023-08-06T03:00:30;25.90;;;20.23;;
34920;SDS011;21128;50.016;20.002;2023-08-06T03:02:57;27.73;;;20.30;;
34920;SDS011;21128;50.016;20.002;2023-08-06T03:05:24;32.30;;;19.97;;
34920;SDS011;21128;50.016;20.002;2023-08-06T03:07:51;31.10;;;20.33;;
34920;SDS011;21128;50.016;20.002;2023-08-06T03:10:17;28.83;;;20.03;;
34920;SDS011;21128;50.016;20.002;2023-08-06T03:12:44;28.07;;;20.17;;
34920;SDS011;21128;50.016;20.002;2023-08-06T03:15:11;31.17;;;20.43;;
34920;SDS011;21128;50.016;20.002;2023-08-06T03:17:38;29.80;;;20.20;;
34920;SDS011;21128;50.016;20.002;2023-08-06T03:20:06;28.87;;;19.87;;
34920;SDS011;21128;50.016;20.002;2023-08-06T03:22:33;28.83;;;19.83;;
34920;SDS011;21128;50.016;20.002;2023-08-06T03:25:00;38.90;;;19.53;;
34920;SDS011;21128;50.016;20.002;2023-08-06T03:27:27;28.33;;;19.90;;
34920;SDS011;21128;50.016;20.002;2023-08-06T03:29:57;24.47;;;18.03;;
34920;SDS011;21128;50.016;20.002;2023-08-06T03:32:24;32.70;;;19.50;;
34920;SDS011;21128;50.016;20.002;2023-08-06T03:34:51;29.87;;;19.45;;
34920;SDS011;21128;50.016;20.002;2023-08-06T03:37:18;23.97;;;19.40;;
34920;SDS011;21128;50.016;20.002;2023-08-06T03:39:45;27.27;;;18.70;;
34920;SDS011;21128;50.016;20.002;2023-08-06T03:42:12;29.63;;;19.17;;
34920;SDS011;21128;50.016;20.002;2023-08-06T03:44:39;24.43;;;18.97;;
34920;SDS011;21128;50.016;20.002;2023-08-06T03:47:06;26.77;;;17.47;;
34920;SDS011;21128;50.016;20.002;2023-08-06T03:49:32;26.43;;;18.00;;
34920;SDS011;21128;50.016;20.002;2023-08-06T03:51:59;23.43;;;16.87;;
34920;SDS011;21128;50.016;20.002;2023-08-06T03:54:26;24.00;;;17.85;;
34920;SDS011;21128;50.016;20.002;2023-08-06T03:56:53;22.73;;;16.33;;
34920;SDS011;21128;50.016;20.002;2023-08-06T03:59:20;22.75;;;16.30;;
34920;SDS011;21128;50.016;20.002;2023-08-06T04:01:47;25.15;;;17.65;;
34920;SDS011;21128;50.016;20.002;2023-08-06T04:04:14;27.73;;;19.03;;
34920;SDS011;21128;50.016;20.002;2023-08-06T04:06:41;23.17;;;17.47;;
34920;SDS011;21128;50.016;20.002;2023-08-06T04:09:08;23.25;;;16.90;;
34920;SDS011;21128;50.016;20.002;2023-08-06T04:11:36;25.23;;;17.90;;
34920;SDS011;21128;50.016;20.002;2023-08-06T04:14:02;24.55;;;17.35;;
34920;SDS011;21128;50.016;20.002;2023-08-06T04:16:29;22.50;;;16.60;;
34920;SDS011;21128;50.016;20.002;2023-08-06T04:18:56;24.47;;;16.83;;
34920;SDS011;21128;50.016;20.002;2023-08-06T04:21:24;22.77;;;15.60;;
34920;SDS011;21128;50.016;20.002;2023-08-06T04:23:51;23.33;;;15.47;;
34920;SDS011;21128;50.016;20.002;2023-08-06T04:26:18;25.10;;;15.78;;
34920;SDS011;21128;50.016;20.002;2023-08-06T04:28:45;23.30;;;16.23;;
34920;SDS011;21128;50.016;20.002;2023-08-06T04:31:12;25.48;;;16.35;;
34920;SDS011;21128;50.016;20.002;2023-08-06T04:33:39;26.80;;;16.57;;
34920;SDS011;21128;50.016;20.002;2023-08-06T04:36:06;19.57;;;15.60;;
34920;SDS011;21128;50.016;20.002;2023-08-06T04:38:33;21.00;;;15.17;;
34920;SDS011;21128;50.016;20.002;2023-08-06T04:41:01;23.03;;;13.83;;
34920;SDS011;21128;50.016;20.002;2023-08-06T04:43:29;20.13;;;15.20;;
34920;SDS011;21128;50.016;20.002;2023-08-06T04:45:56;17.97;;;12.87;;
34920;SDS011;21128;50.016;20.002;2023-08-06T04:48:23;17.03;;;12.90;;
34920;SDS011;21128;50.016;20.002;2023-08-06T04:50:50;18.83;;;12.47;;
34920;SDS011;21128;50.016;20.002;2023-08-06T04:53:17;16.97;;;12.73;;
34920;SDS011;21128;50.016;20.002;2023-08-06T04:55:44;19.80;;;14.67;;
34920;SDS011;21128;50.016;20.002;2023-08-06T04:58:12;22.40;;;14.97;;
34920;SDS011;21128;50.016;20.002;2023-08-06T05:00:39;22.33;;;14.13;;
34920;SDS011;21128;50.016;20.002;2023-08-06T05:03:06;16.40;;;12.55;;
34920;SDS011;21128;50.016;20.002;2023-08-06T05:05:34;20.77;;;13.00;;
34920;SDS011;21128;50.016;20.002;2023-08-06T05:08:01;19.37;;;13.47;;
34920;SDS011;21128;50.016;20.002;2023-08-06T05:10:28;18.90;;;12.70;;
34920;SDS011;21128;50.016;20.002;2023-08-06T05:12:55;18.87;;;13.23;;
34920;SDS011;21128;50.016;20.002;2023-08-06T05:15:25;22.43;;;13.47;;
34920;SDS011;21128;50.016;20.002;2023-08-06T05:17:52;22.33;;;12.77;;
34920;SDS011;21128;50.016;20.002;2023-08-06T05:20:20;18.53;;;12.60;;
34920;SDS011;21128;50.016;20.002;2023-08-06T05:22:47;20.70;;;12.47;;
34920;SDS011;21128;50.016;20.002;2023-08-06T05:25:14;16.10;;;11.60;;
34920;SDS011;21128;50.016;20.002;2023-08-06T05:27:41;15.65;;;11.63;;
34920;SDS011;21128;50.016;20.002;2023-08-06T05:30:08;19.25;;;12.35;;
34920;SDS011;21128;50.016;20.002;2023-08-06T05:32:36;17.85;;;12.20;;
34920;SDS011;21128;50.016;20.002;2023-08-06T05:35:03;19.83;;;13.53;;
34920;SDS011;21128;50.016;20.002;2023-08-06T05:37:31;17.23;;;12.00;;
34920;SDS011;21128;50.016;20.002;2023-08-06T05:39:58;19.85;;;13.30;;
34920;SDS011;21128;50.016;20.002;2023-08-06T05:42:25;21.40;;;14.67;;
34920;SDS011;21128;50.016;20.002;2023-08-06T05:44:51;20.12;;;14.93;;
34920;SDS011;21128;50.016;20.002;2023-08-06T05:47:18;26.20;;;15.60;;
34920;SDS011;21128;50.016;20.002;2023-08-06T05:49:46;24.60;;;16.47;;
34920;SDS011;21128;50.016;20.002;2023-08-06T05:52:13;26.33;;;16.10;;
34920;SDS011;21128;50.016;20.002;2023-08-06T05:54:40;24.95;;;15.60;;
34920;SDS011;21128;50.016;20.002;2023-08-06T05:57:07;26.83;;;17.00;;
34920;SDS011;21128;50.016;20.002;2023-08-06T05:59:34;24.47;;;16.97;;
34920;SDS011;21128;50.016;20.002;2023-08-06T06:02:01;24.67;;;15.58;;
34920;SDS011;21128;50.016;20.002;2023-08-06T06:04:28;20.83;;;15.00;;
34920;SDS011;21128;50.016;20.002;2023-08-06T06:06:55;23.17;;;15.17;;
34920;SDS011;21128;50.016;20.002;2023-08-06T06:09:22;23.57;;;15.83;;
34920;SDS011;21128;50.016;20.002;2023-08-06T06:11:49;20.90;;;14.70;;
34920;SDS011;21128;50.016;20.002;2023-08-06T06:14:17;21.60;;;15.87;;
34920;SDS011;21128;50.016;20.002;2023-08-06T06:16:44;20.55;;;12.90;;
34920;SDS011;21128;50.016;20.002;2023-08-06T06:19:12;22.03;;;12.97;;
34920;SDS011;21128;50.016;20.002;2023-08-06T06:21:39;19.90;;;12.50;;
34920;SDS011;21128;50.016;20.002;2023-08-06T06:24:06;17.67;;;12.83;;
34920;SDS011;21128;50.016;20.002;2023-08-06T06:26:34;25.63;;;16.00;;
34920;SDS011;21128;50.016;20.002;2023-08-06T06:29:02;26.57;;;16.70;;
34920;SDS011;21128;50.016;20.002;2023-08-06T06:31:29;29.33;;;18.97;;
34920;SDS011;21128;50.016;20.002;2023-08-06T06:33:56;31.62;;;19.20;;
34920;SDS011;21128;50.016;20.002;2023-08-06T06:36:23;34.20;;;19.87;;
34920;SDS011;21128;50.016;20.002;2023-08-06T06:38:50;31.60;;;20.07;;
34920;SDS011;21128;50.016;20.002;2023-08-06T06:41:17;29.33;;;19.40;;
34920;SDS011;21128;50.016;20.002;2023-08-06T06:43:44;28.87;;;17.77;;
34920;SDS011;21128;50.016;20.002;2023-08-06T06:46:11;29.52;;;18.95;;
34920;SDS011;21128;50.016;20.002;2023-08-06T06:48:38;26.97;;;17.23;;
34920;SDS011;21128;50.016;20.002;2023-08-06T06:51:05;26.23;;;16.43;;
34920;SDS011;21128;50.016;20.002;2023-08-06T06:53:32;22.63;;;15.07;;
34920;SDS011;21128;50.016;20.002;2023-08-06T06:56:03;22.23;;;14.77;;
34920;SDS011;21128;50.016;20.002;2023-08-06T06:58:31;18.73;;;13.30;;
34920;SDS011;21128;50.016;20.002;2023-08-06T07:00:58;17.37;;;13.23;;
34920;SDS011;21128;50.016;20.002;2023-08-06T07:03:25;18.20;;;11.78;;
34920;SDS011;21128;50.016;20.002;2023-08-06T07:05:56;15.13;;;11.97;;
34920;SDS011;21128;50.016;20.002;2023-08-06T07:08:25;17.62;;;12.20;;
34920;SDS011;21128;50.016;20.002;2023-08-06T07:11:05;15.70;;;11.43;;
34920;SDS011;21128;50.016;20.002;2023-08-06T07:13:33;16.63;;;11.10;;
34920;SDS011;21128;50.016;20.002;2023-08-06T07:16:00;14.77;;;11.10;;
34920;SDS011;21128;50.016;20.002;2023-08-06T07:18:28;15.90;;;10.93;;
34920;SDS011;21128;50.016;20.002;2023-08-06T07:20:55;18.30;;;12.20;;
34920;SDS011;21128;50.016;20.002;2023-08-06T07:23:24;14.57;;;10.37;;
34920;SDS011;21128;50.016;20.002;2023-08-06T07:25:52;13.87;;;9.97;;
34920;SDS011;21128;50.016;20.002;2023-08-06T07:28:19;14.90;;;11.55;;
34920;SDS011;21128;50.016;20.002;2023-08-06T07:30:46;12.78;;;10.70;;
34920;SDS011;21128;50.016;20.002;2023-08-06T07:33:13;15.63;;;10.17;;
34920;SDS011;21128;50.016;20.002;2023-08-06T07:35:41;13.83;;;10.00;;
34920;SDS011;21128;50.016;20.002;2023-08-06T07:38:08;14.10;;;10.43;;
34920;SDS011;21128;50.016;20.002;2023-08-06T07:40:35;17.10;;;10.90;;
34920;SDS011;21128;50.016;20.002;2023-08-06T07:43:03;15.07;;;10.17;;
34920;SDS011;21128;50.016;20.002;2023-08-06T07:45:34;10.90;;;7.90;;
34920;SDS011;21128;50.016;20.002;2023-08-06T07:48:02;3.23;;;2.10;;
34920;SDS011;21128;50.016;20.002;2023-08-06T07:50:30;1.40;;;1.27;;
34920;SDS011;21128;50.016;20.002;2023-08-06T07:52:57;1.67;;;1.13;;
34920;SDS011;21128;50.016;20.002;2023-08-06T07:55:25;1.67;;;0.70;;
34920;SDS011;21128;50.016;20.002;2023-08-06T07:57:52;0.70;;;0.50;;
34920;SDS011;21128;50.016;20.002;2023-08-06T08:00:20;1.00;;;0.30;;
34920;SDS011;21128;50.016;20.002;2023-08-06T08:02:47;4.83;;;0.43;;
34920;SDS011;21128;50.016;20.002;2023-08-06T08:05:14;2.57;;;0.50;;
34920;SDS011;21128;50.016;20.002;2023-08-06T08:07:44;0.67;;;0.30;;
34920;SDS011;21128;50.016;20.002;2023-08-06T08:10:11;1.40;;;0.30;;
34920;SDS011;21128;50.016;20.002;2023-08-06T08:12:38;1.20;;;0.23;;
34920;SDS011;21128;50.016;20.002;2023-08-06T08:15:05;0.90;;;0.30;;
34920;SDS011;21128;50.016;20.002;2023-08-06T08:17:33;0.23;;;0.20;;
34920;SDS011;21128;50.016;20.002;2023-08-06T08:20:01;1.50;;;0.40;;
34920;SDS011;21128;50.016;20.002;2023-08-06T08:22:28;1.12;;;0.30;;
34920;SDS011;21128;50.016;20.002;2023-08-06T08:24:55;0.63;;;0.30;;
34920;SDS011;21128;50.016;20.002;2023-08-06T08:27:22;0.70;;;0.30;;
34920;SDS011;21128;50.016;20.002;2023-08-06T08:29:49;1.10;;;0.20;;
34920;SDS011;21128;50.016;20.002;2023-08-06T08:32:16;0.42;;;0.20;;
34920;SDS011;21128;50.016;20.002;2023-08-06T08:34:43;0.90;;;0.30;;
34920;SDS011;21128;50.016;20.002;2023-08-06T08:37:11;1.17;;;0.33;;
34920;SDS011;21128;50.016;20.002;2023-08-06T08:39:38;1.00;;;0.30;;
34920;SDS011;21128;50.016;20.002;2023-08-06T08:42:05;0.70;;;0.20;;
34920;SDS011;21128;50.016;20.002;2023-08-06T08:44:33;1.03;;;0.30;;
34920;SDS011;21128;50.016;20.002;2023-08-06T08:47:06;0.98;;;0.20;;
34920;SDS011;21128;50.016;20.002;2023-08-06T08:49:36;2.33;;;0.47;;
34920;SDS011;21128;50.016;20.002;2023-08-06T08:52:04;1.90;;;0.20;;
34920;SDS011;21128;50.016;20.002;2023-08-06T08:54:33;1.35;;;0.20;;
34920;SDS011;21128;50.016;20.002;2023-08-06T08:57:01;0.63;;;0.20;;
34920;SDS011;21128;50.016;20.002;2023-08-06T08:59:29;0.95;;;0.10;;
34920;SDS011;21128;50.016;20.002;2023-08-06T09:01:56;1.65;;;0.28;;
34920;SDS011;21128;50.016;20.002;2023-08-06T09:04:23;0.57;;;0.17;;
34920;SDS011;21128;50.016;20.002;2023-08-06T09:06:53;1.50;;;0.20;;
34920;SDS011;21128;50.016;20.002;2023-08-06T09:09:28;0.40;;;0.20;;
34920;SDS011;21128;50.016;20.002;2023-08-06T09:12:00;0.33;;;0.33;;
34920;SDS011;21128;50.016;20.002;2023-08-06T09:14:31;0.63;;;0.30;;
34920;SDS011;21128;50.016;20.002;2023-08-06T09:16:57;0.87;;;0.40;;
34920;SDS011;21128;50.016;20.002;2023-08-06T09:19:24;0.30;;;0.13;;
34920;SDS011;21128;50.016;20.002;2023-08-06T09:21:54;0.40;;;0.30;;
34920;SDS011;21128;50.016;20.002;2023-08-06T09:24:22;0.97;;;0.40;;
34920;SDS011;21128;50.016;20.002;2023-08-06T09:26:50;3.30;;;0.20;;
34920;SDS011;21128;50.016;20.002;2023-08-06T09:29:17;2.35;;;0.30;;
34920;SDS011;21128;50.016;20.002;2023-08-06T09:31:48;1.25;;;0.47;;
34920;SDS011;21128;50.016;20.002;2023-08-06T09:34:20;0.30;;;0.20;;
34920;SDS011;21128;50.016;20.002;2023-08-06T09:36:49;0.20;;;0.10;;
34920;SDS011;21128;50.016;20.002;2023-08-06T09:39:18;0.10;;;0.10;;
34920;SDS011;21128;50.016;20.002;2023-08-06T09:41:46;0.33;;;0.23;;
34920;SDS011;21128;50.016;20.002;2023-08-06T09:44:18;0.70;;;0.20;;
34920;SDS011;21128;50.016;20.002;2023-08-06T09:46:48;0.95;;;0.20;;
34920;SDS011;21128;50.016;20.002;2023-08-06T09:49:21;0.47;;;0.30;;
34920;SDS011;21128;50.016;20.002;2023-08-06T09:51:53;0.30;;;0.27;;
34920;SDS011;21128;50.016;20.002;2023-08-06T09:54:25;0.10;;;0.03;;
34920;SDS011;21128;50.016;20.002;2023-08-06T09:56:54;3.90;;;0.20;;
34920;SDS011;21128;50.016;20.002;2023-08-06T09:59:25;0.93;;;0.30;;
34920;SDS011;21128;50.016;20.002;2023-08-06T10:01:53;1.33;;;0.37;;
34920;SDS011;21128;50.016;20.002;2023-08-06T10:04:24;4.13;;;1.63;;
34920;SDS011;21128;50.016;20.002;2023-08-06T10:06:51;1.80;;;0.47;;
34920;SDS011;21128;50.016;20.002;2023-08-06T10:09:19;2.70;;;0.40;;
34920;SDS011;21128;50.016;20.002;2023-08-06T10:11:50;2.03;;;0.50;;
34920;SDS011;21128;50.016;20.002;2023-08-06T10:14:21;0.43;;;0.37;;
34920;SDS011;21128;50.016;20.002;2023-08-06T10:19:21;1.50;;;0.40;;
34920;SDS011;21128;50.016;20.002;2023-08-06T10:24:48;1.07;;;0.57;;
34920;SDS011;21128;50.016;20.002;2023-08-06T10:27:23;0.93;;;0.27;;
34920;SDS011;21128;50.016;20.002;2023-08-06T10:32:54;1.00;;;0.50;;
34920;SDS011;21128;50.016;20.002;2023-08-06T10:35:31;2.83;;;0.40;;
34920;SDS011;21128;50.016;20.002;2023-08-06T10:40:42;1.87;;;0.57;;
34920;SDS011;21128;50.016;20.002;2023-08-06T10:43:27;0.30;;;0.30;;
34920;SDS011;21128;50.016;20.002;2023-08-06T10:46:02;0.60;;;0.40;;
34920;SDS011;21128;50.016;20.002;2023-08-06T10:48:36;0.60;;;0.33;;
34920;SDS011;21128;50.016;20.002;2023-08-06T10:51:08;0.73;;;0.50;;
34920;SDS011;21128;50.016;20.002;2023-08-06T10:53:43;0.40;;;0.40;;
34920;SDS011;21128;50.016;20.002;2023-08-06T10:56:12;2.47;;;0.37;;
34920;SDS011;21128;50.016;20.002;2023-08-06T10:58:43;1.23;;;0.40;;
34920;SDS011;21128;50.016;20.002;2023-08-06T11:01:11;0.43;;;0.30;;
34920;SDS011;21128;50.016;20.002;2023-08-06T11:03:40;1.47;;;0.20;;
34920;SDS011;21128;50.016;20.002;2023-08-06T11:06:08;0.70;;;0.30;;
34920;SDS011;21128;50.016;20.002;2023-08-06T11:08:37;0.60;;;0.30;;
34920;SDS011;21128;50.016;20.002;2023-08-06T11:11:11;0.37;;;0.30;;
34920;SDS011;21128;50.016;20.002;2023-08-06T11:13:40;0.50;;;0.50;;
34920;SDS011;21128;50.016;20.002;2023-08-06T11:16:08;1.20;;;0.47;;
34920;SDS011;21128;50.016;20.002;2023-08-06T11:18:36;2.20;;;0.55;;
34920;SDS011;21128;50.016;20.002;2023-08-06T11:21:04;3.20;;;0.67;;
34920;SDS011;21128;50.016;20.002;2023-08-06T11:23:31;2.63;;;0.70;;
34920;SDS011;21128;50.016;20.002;2023-08-06T11:25:58;1.70;;;0.40;;
34920;SDS011;21128;50.016;20.002;2023-08-06T11:28:25;0.40;;;0.30;;
34920;SDS011;21128;50.016;20.002;2023-08-06T11:30:54;0.95;;;0.30;;
34920;SDS011;21128;50.016;20.002;2023-08-06T11:33:23;0.60;;;0.50;;
34920;SDS011;21128;50.016;20.002;2023-08-06T11:35:55;4.30;;;0.40;;
34920;SDS011;21128;50.016;20.002;2023-08-06T11:38:29;0.73;;;0.50;;
34920;SDS011;21128;50.016;20.002;2023-08-06T11:40:57;1.37;;;0.40;;
34920;SDS011;21128;50.016;20.002;2023-08-06T11:43:24;0.43;;;0.30;;
34920;SDS011;21128;50.016;20.002;2023-08-06T11:45:51;0.90;;;0.40;;
34920;SDS011;21128;50.016;20.002;2023-08-06T11:48:21;2.40;;;0.40;;
34920;SDS011;21128;50.016;20.002;2023-08-06T11:50:48;1.60;;;0.53;;
34920;SDS011;21128;50.016;20.002;2023-08-06T11:53:15;1.10;;;0.50;;
34920;SDS011;21128;50.016;20.002;2023-08-06T11:55:42;1.10;;;0.30;;
34920;SDS011;21128;50.016;20.002;2023-08-06T11:58:10;0.72;;;0.50;;
34920;SDS011;21128;50.016;20.002;2023-08-06T12:00:41;1.03;;;0.30;;
34920;SDS011;21128;50.016;20.002;2023-08-06T12:03:09;2.30;;;0.40;;
34920;SDS011;21128;50.016;20.002;2023-08-06T12:05:37;1.03;;;0.30;;
34920;SDS011;21128;50.016;20.002;2023-08-06T12:08:05;0.93;;;0.33;;
34920;SDS011;21128;50.016;20.002;2023-08-06T12:10:32;1.10;;;0.28;;
34920;SDS011;21128;50.016;20.002;2023-08-06T12:12:59;1.85;;;0.50;;
34920;SDS011;21128;50.016;20.002;2023-08-06T12:15:27;0.50;;;0.27;;
34920;SDS011;21128;50.016;20.002;2023-08-06T12:17:54;1.10;;;0.37;;
34920;SDS011;21128;50.016;20.002;2023-08-06T12:20:21;1.70;;;0.30;;
34920;SDS011;21128;50.016;20.002;2023-08-06T12:22:48;2.30;;;0.23;;
34920;SDS011;21128;50.016;20.002;2023-08-06T12:25:15;0.43;;;0.20;;
34920;SDS011;21128;50.016;20.002;2023-08-06T12:27:43;0.90;;;0.20;;
34920;SDS011;21128;50.016;20.002;2023-08-06T12:30:12;0.83;;;0.50;;
34920;SDS011;21128;50.016;20.002;2023-08-06T12:32:40;0.83;;;0.37;;
34920;SDS011;21128;50.016;20.002;2023-08-06T12:35:07;0.60;;;0.30;;
34920;SDS011;21128;50.016;20.002;2023-08-06T12:37:35;0.77;;;0.50;;
34920;SDS011;21128;50.016;20.002;2023-08-06T12:40:05;0.55;;;0.30;;
34920;SDS011;21128;50.016;20.002;2023-08-06T12:42:33;0.87;;;0.30;;
34920;SDS011;21128;50.016;20.002;2023-08-06T12:45:00;1.23;;;0.23;;
34920;SDS011;21128;50.016;20.002;2023-08-06T12:47:28;0.60;;;0.30;;
34920;SDS011;21128;50.016;20.002;2023-08-06T12:49:54;1.90;;;0.47;;
34920;SDS011;21128;50.016;20.002;2023-08-06T12:52:21;0.40;;;0.20;;
34920;SDS011;21128;50.016;20.002;2023-08-06T12:54:48;0.55;;;0.40;;
34920;SDS011;21128;50.016;20.002;2023-08-06T12:57:15;0.10;;;0.10;;
34920;SDS011;21128;50.016;20.002;2023-08-06T12:59:43;0.60;;;0.30;;
34920;SDS011;21128;50.016;20.002;2023-08-06T13:02:10;0.62;;;0.33;;
34920;SDS011;21128;50.016;20.002;2023-08-06T13:04:37;2.47;;;0.30;;
34920;SDS011;21128;50.016;20.002;2023-08-06T13:07:04;0.95;;;0.30;;
34920;SDS011;21128;50.016;20.002;2023-08-06T13:09:33;0.30;;;0.30;;
34920;SDS011;21128;50.016;20.002;2023-08-06T13:12:00;1.43;;;0.40;;
34920;SDS011;21128;50.016;20.002;2023-08-06T13:14:31;0.30;;;0.20;;
34920;SDS011;21128;50.016;20.002;2023-08-06T13:16:59;0.23;;;0.20;;
34920;SDS011;21128;50.016;20.002;2023-08-06T13:19:26;0.73;;;0.30;;
34920;SDS011;21128;50.016;20.002;2023-08-06T13:21:58;0.40;;;0.20;;
34920;SDS011;21128;50.016;20.002;2023-08-06T13:24:25;1.72;;;0.53;;
34920;SDS011;21128;50.016;20.002;2023-08-06T13:26:54;1.13;;;0.20;;
34920;SDS011;21128;50.016;20.002;2023-08-06T13:29:21;2.00;;;0.40;;
34920;SDS011;21128;50.016;20.002;2023-08-06T13:31:48;0.68;;;0.30;;
34920;SDS011;21128;50.016;20.002;2023-08-06T13:34:15;1.63;;;0.50;;
34920;SDS011;21128;50.016;20.002;2023-08-06T13:36:43;1.53;;;0.50;;
34920;SDS011;21128;50.016;20.002;2023-08-06T13:39:10;4.53;;;0.40;;
34920;SDS011;21128;50.016;20.002;2023-08-06T13:41:38;1.32;;;0.50;;
34920;SDS011;21128;50.016;20.002;2023-08-06T13:44:06;0.70;;;0.30;;
34920;SDS011;21128;50.016;20.002;2023-08-06T13:46:33;1.57;;;0.50;;
34920;SDS011;21128;50.016;20.002;2023-08-06T13:49:00;0.93;;;0.27;;
34920;SDS011;21128;50.016;20.002;2023-08-06T13:51:27;1.13;;;0.37;;
34920;SDS011;21128;50.016;20.002;2023-08-06T13:53:55;0.40;;;0.30;;
34920;SDS011;21128;50.016;20.002;2023-08-06T13:56:24;3.17;;;0.37;;
34920;SDS011;21128;50.016;20.002;2023-08-06T13:58:51;3.97;;;0.50;;
34920;SDS011;21128;50.016;20.002;2023-08-06T14:01:18;0.57;;;0.40;;
34920;SDS011;21128;50.016;20.002;2023-08-06T14:03:48;1.40;;;0.30;;
34920;SDS011;21128;50.016;20.002;2023-08-06T14:06:15;0.70;;;0.50;;
34920;SDS011;21128;50.016;20.002;2023-08-06T14:08:42;0.53;;;0.40;;
34920;SDS011;21128;50.016;20.002;2023-08-06T14:11:09;0.55;;;0.45;;
34920;SDS011;21128;50.016;20.002;2023-08-06T14:13:37;0.77;;;0.40;;
34920;SDS011;21128;50.016;20.002;2023-08-06T14:16:04;0.88;;;0.40;;
34920;SDS011;21128;50.016;20.002;2023-08-06T14:18:31;1.45;;;0.60;;
34920;SDS011;21128;50.016;20.002;2023-08-06T14:20:58;2.30;;;0.80;;
34920;SDS011;21128;50.016;20.002;2023-08-06T14:23:25;0.73;;;0.33;;
34920;SDS011;21128;50.016;20.002;2023-08-06T14:25:52;1.90;;;0.60;;
34920;SDS011;21128;50.016;20.002;2023-08-06T14:28:19;1.50;;;0.47;;
34920;SDS011;21128;50.016;20.002;2023-08-06T14:30:46;0.80;;;0.53;;
34920;SDS011;21128;50.016;20.002;2023-08-06T14:33:13;1.07;;;0.53;;
34920;SDS011;21128;50.016;20.002;2023-08-06T14:35:40;1.33;;;0.50;;
34920;SDS011;21128;50.016;20.002;2023-08-06T14:38:07;2.07;;;0.60;;
34920;SDS011;21128;50.016;20.002;2023-08-06T14:40:34;1.50;;;0.50;;
34920;SDS011;21128;50.016;20.002;2023-08-06T14:43:07;1.40;;;0.80;;